createdAt,value
2019-03-23T00:02:14.913Z,3.20
2019-03-23T00:04:45.952Z,3.67
2019-03-23T00:07:17.611Z,3.77
2019-03-23T00:09:48.895Z,6.25
2019-03-23T00:12:20.004Z,4.37
2019-03-23T00:14:51.566Z,3.87
2019-03-23T00:17:22.706Z,4.75
2019-03-23T00:19:55.795Z,4.55
2019-03-23T00:22:27.926Z,4.15
2019-03-23T00:24:59.161Z,7.12
2019-03-23T00:27:30.353Z,7.35
2019-03-23T00:30:01.370Z,7.20
2019-03-23T00:32:32.572Z,10.28
2019-03-23T00:35:05.036Z,11.25
2019-03-23T00:37:36.341Z,12.65
2019-03-23T00:40:08.740Z,5.58
2019-03-23T00:42:48.093Z,5.95
2019-03-23T00:45:19.437Z,4.20
2019-03-23T00:47:50.622Z,4.78
2019-03-23T00:50:21.759Z,6.67
2019-03-23T00:52:52.968Z,5.10
2019-03-23T00:55:25.912Z,6.08
2019-03-23T00:57:57.054Z,3.03
2019-03-23T01:00:28.038Z,2.52
2019-03-23T01:02:59.200Z,2.40
2019-03-23T01:05:30.419Z,2.33
2019-03-23T01:08:01.570Z,2.08
2019-03-23T01:10:33.330Z,1.95
2019-03-23T01:13:04.548Z,6.10
2019-03-23T01:15:35.726Z,3.33
2019-03-23T01:18:09.121Z,3.27
2019-03-23T01:20:49.551Z,2.80
2019-03-23T01:23:16.521Z,4.65
2019-03-23T01:25:47.781Z,3.50
2019-03-23T01:28:19.350Z,4.45
2019-03-23T01:30:50.521Z,3.40
2019-03-23T01:33:21.722Z,3.37
2019-03-23T01:35:53.300Z,4.30
2019-03-23T01:38:24.318Z,3.00
2019-03-23T01:40:55.711Z,2.83
2019-03-23T01:43:27.328Z,2.58
2019-03-23T01:45:58.473Z,2.35
2019-03-23T01:48:30.024Z,2.00
2019-03-23T01:51:02.005Z,3.05
2019-03-23T01:53:33.222Z,2.72
2019-03-23T01:56:04.465Z,2.77
2019-03-23T01:58:35.564Z,2.62
2019-03-23T02:01:07.611Z,2.75
2019-03-23T02:03:38.753Z,1.85
2019-03-23T02:06:10.826Z,2.02
2019-03-23T02:08:41.927Z,2.25
2019-03-23T02:11:13.377Z,3.25
2019-03-23T02:13:44.760Z,2.90
2019-03-23T02:16:15.706Z,2.10
2019-03-23T02:18:46.739Z,1.90
2019-03-23T02:21:19.476Z,2.10
2019-03-23T02:23:50.620Z,2.20
2019-03-23T02:26:21.785Z,2.60
2019-03-23T02:28:57.873Z,3.60
2019-03-23T02:31:30.108Z,2.17
2019-03-23T02:34:01.249Z,2.40
2019-03-23T02:36:32.401Z,2.75
2019-03-23T02:39:04.599Z,1.90
2019-03-23T02:41:36.826Z,1.75
2019-03-23T02:44:07.977Z,2.00
2019-03-23T02:46:39.219Z,2.77
2019-03-23T02:49:10.627Z,2.75
2019-03-23T02:51:41.881Z,2.25
2019-03-23T02:54:13.362Z,2.47
2019-03-23T02:56:44.350Z,2.98
2019-03-23T02:59:15.540Z,2.85
2019-03-23T03:01:46.745Z,4.03
2019-03-23T03:04:17.732Z,3.67
2019-03-23T03:06:48.837Z,3.08
2019-03-23T03:09:19.928Z,3.10
2019-03-23T03:11:51.610Z,3.30
2019-03-23T03:14:22.680Z,3.27
2019-03-23T03:16:54.574Z,2.98
2019-03-23T03:19:25.523Z,3.22
2019-03-23T03:21:58.059Z,3.50
2019-03-23T03:24:29.155Z,2.95
2019-03-23T03:27:00.131Z,3.12
2019-03-23T03:29:31.497Z,2.72
2019-03-23T03:32:02.771Z,2.52
2019-03-23T03:34:35.548Z,3.92
2019-03-23T03:37:06.544Z,3.58
2019-03-23T03:39:37.477Z,3.60
2019-03-23T03:42:09.570Z,5.15
2019-03-23T03:44:41.255Z,4.92
2019-03-23T03:47:12.468Z,3.20
2019-03-23T03:49:44.366Z,5.33
2019-03-23T03:52:15.654Z,5.62
2019-03-23T03:54:47.062Z,8.10
2019-03-23T03:57:19.320Z,8.63
2019-03-23T03:59:50.956Z,3.25
2019-03-23T04:02:22.294Z,6.12
2019-03-23T04:04:54.605Z,6.50
2019-03-23T04:09:59.036Z,3.92
2019-03-23T04:12:30.021Z,5.28
2019-03-23T04:15:01.271Z,2.50
2019-03-23T04:17:32.371Z,2.58
2019-03-23T04:20:05.388Z,2.35
2019-03-23T04:22:38.033Z,2.20
2019-03-23T04:25:10.637Z,1.77
2019-03-23T04:27:41.747Z,1.98
2019-03-23T04:30:12.907Z,2.45
2019-03-23T04:32:45.172Z,2.40
2019-03-23T04:35:16.514Z,1.82
2019-03-23T04:37:47.865Z,2.47
2019-03-23T04:40:18.923Z,2.22
2019-03-23T04:42:50.022Z,3.08
2019-03-23T04:45:21.505Z,1.90
2019-03-23T04:47:53.880Z,3.02
2019-03-23T04:50:24.961Z,2.65
2019-03-23T04:52:56.161Z,2.80
2019-03-23T04:55:27.824Z,2.72
2019-03-23T04:57:59.667Z,4.00
2019-03-23T05:00:30.862Z,3.20
2019-03-23T05:03:02.076Z,2.77
2019-03-23T05:05:33.632Z,2.33
2019-03-23T05:08:05.177Z,2.30
2019-03-23T05:10:36.461Z,2.42
2019-03-23T05:13:07.574Z,2.27
2019-03-23T05:15:39.775Z,1.90
2019-03-23T05:18:10.734Z,1.72
2019-03-23T05:20:42.555Z,1.70
2019-03-23T05:23:15.534Z,1.70
2019-03-23T05:25:46.883Z,2.12
2019-03-23T05:28:19.004Z,1.72
2019-03-23T05:30:50.323Z,1.67
2019-03-23T05:33:21.369Z,1.72
2019-03-23T05:35:52.380Z,1.80
2019-03-23T05:38:23.566Z,2.02
2019-03-23T05:41:01.364Z,1.45
2019-03-23T05:43:32.467Z,2.37
2019-03-23T05:46:05.152Z,2.05
2019-03-23T05:48:36.210Z,1.75
2019-03-23T05:51:08.582Z,2.08
2019-03-23T05:53:39.639Z,2.62
2019-03-23T05:56:11.969Z,2.30
2019-03-23T05:58:43.074Z,2.58
2019-03-23T06:01:15.812Z,2.60
2019-03-23T06:03:46.785Z,2.45
2019-03-23T06:06:19.800Z,4.62
2019-03-23T06:08:55.215Z,5.92
2019-03-23T06:11:24.201Z,7.97
2019-03-23T06:14:00.211Z,2.33
2019-03-23T06:16:31.488Z,2.25
2019-03-23T06:19:02.471Z,1.47
2019-03-23T06:21:33.513Z,1.70
2019-03-23T06:24:06.232Z,1.77
2019-03-23T06:26:38.561Z,2.40
2019-03-23T06:29:09.685Z,4.40
2019-03-23T06:31:40.816Z,7.47
2019-03-23T06:34:11.899Z,2.98
2019-03-23T06:36:42.909Z,1.90
2019-03-23T06:39:15.261Z,1.92
2019-03-23T06:41:46.640Z,2.52
2019-03-23T06:44:18.482Z,4.65
2019-03-23T06:46:49.541Z,2.30
2019-03-23T06:49:21.162Z,3.50
2019-03-23T06:51:52.180Z,3.60
2019-03-23T06:54:23.283Z,1.82
2019-03-23T06:56:54.308Z,1.75
2019-03-23T06:59:25.247Z,4.37
2019-03-23T07:01:56.504Z,4.05
2019-03-23T07:04:27.532Z,1.67
2019-03-23T07:06:58.612Z,2.08
2019-03-23T07:09:29.840Z,1.65
2019-03-23T07:12:06.139Z,1.70
2019-03-23T07:14:37.140Z,1.40
2019-03-23T07:17:08.354Z,1.52
2019-03-23T07:19:40.040Z,1.65
2019-03-23T07:22:11.981Z,2.00
2019-03-23T07:24:46.824Z,1.22
2019-03-23T07:27:22.692Z,1.62
2019-03-23T07:29:53.731Z,1.55
2019-03-23T07:32:24.874Z,1.98
2019-03-23T07:34:57.085Z,1.85
2019-03-23T07:37:28.289Z,1.60
2019-03-23T07:39:59.415Z,1.50
2019-03-23T07:42:30.601Z,1.17
2019-03-23T07:45:01.592Z,1.15
2019-03-23T07:47:32.689Z,1.62
2019-03-23T07:50:07.915Z,2.05
2019-03-23T07:52:39.692Z,1.27
2019-03-23T07:55:15.595Z,1.32
2019-03-23T07:57:47.729Z,1.50
2019-03-23T08:00:25.507Z,2.00
2019-03-23T08:02:56.752Z,2.95
2019-03-23T08:05:27.695Z,3.62
2019-03-23T08:07:58.939Z,1.67
2019-03-23T08:10:33.118Z,1.80
2019-03-23T08:13:06.746Z,1.50
2019-03-23T08:15:37.993Z,2.20
2019-03-23T08:18:09.601Z,2.10
2019-03-23T08:20:40.827Z,1.70
2019-03-23T08:23:12.287Z,1.70
2019-03-23T08:25:46.367Z,1.62
2019-03-23T08:28:19.700Z,1.95
2019-03-23T08:30:50.871Z,2.00
2019-03-23T08:33:22.061Z,1.80
2019-03-23T08:35:53.742Z,1.70
2019-03-23T08:38:25.244Z,1.75
2019-03-23T08:40:56.206Z,2.20
2019-03-23T08:43:27.284Z,1.87
2019-03-23T08:46:00.228Z,1.90
2019-03-23T08:48:31.346Z,2.35
2019-03-23T08:51:12.787Z,3.10
2019-03-23T08:53:43.849Z,1.95
2019-03-23T08:56:14.872Z,6.03
2019-03-23T08:58:45.932Z,4.10
2019-03-23T09:01:16.960Z,4.67
2019-03-23T09:03:52.383Z,3.30
2019-03-23T09:06:21.265Z,3.23
2019-03-23T09:08:52.353Z,2.70
2019-03-23T09:11:24.454Z,2.65
2019-03-23T09:13:55.461Z,2.72
2019-03-23T09:16:26.643Z,3.00
2019-03-23T09:18:57.826Z,2.17
2019-03-23T09:21:29.133Z,3.10
2019-03-23T09:24:00.307Z,2.60
2019-03-23T09:26:33.110Z,1.87
2019-03-23T09:29:04.093Z,2.45
2019-03-23T09:31:35.271Z,2.90
2019-03-23T09:34:06.417Z,2.65
2019-03-23T09:36:38.597Z,3.02
2019-03-23T09:39:09.765Z,3.75
2019-03-23T09:41:40.789Z,3.70
2019-03-23T09:44:12.847Z,2.30
2019-03-23T09:46:43.980Z,1.90
2019-03-23T09:49:15.234Z,1.82
2019-03-23T09:51:46.336Z,2.00
2019-03-23T09:54:17.631Z,3.12
2019-03-23T09:56:49.700Z,2.80
2019-03-23T09:59:20.681Z,4.08
2019-03-23T10:01:52.644Z,4.55
2019-03-23T10:04:23.753Z,3.17
2019-03-23T10:06:54.628Z,3.62
2019-03-23T10:09:25.635Z,3.35
2019-03-23T10:11:59.095Z,3.65
2019-03-23T10:14:30.634Z,3.67
2019-03-23T10:17:01.756Z,2.02
2019-03-23T10:19:32.824Z,3.30
2019-03-23T10:22:04.042Z,2.80
2019-03-23T10:24:35.073Z,4.42
2019-03-23T10:27:07.825Z,6.22
2019-03-23T10:29:38.833Z,2.62
2019-03-23T10:32:09.830Z,2.17
2019-03-23T10:34:41.642Z,2.35
2019-03-23T10:37:12.700Z,2.20
2019-03-23T10:39:43.877Z,2.25
2019-03-23T10:42:16.274Z,2.72
2019-03-23T10:44:49.583Z,4.00
2019-03-23T10:47:23.564Z,7.47
2019-03-23T10:49:56.870Z,5.72
2019-03-23T10:52:29.252Z,3.65
2019-03-23T10:55:01.777Z,4.92
2019-03-23T10:57:32.921Z,3.10
2019-03-23T11:00:11.127Z,2.77
2019-03-23T11:02:42.292Z,2.17
2019-03-23T11:05:13.442Z,2.10
2019-03-23T11:07:44.968Z,2.83
2019-03-23T11:10:18.216Z,2.92
2019-03-23T11:12:49.326Z,2.50
2019-03-23T11:15:22.255Z,2.65
2019-03-23T11:17:53.265Z,2.67
2019-03-23T11:20:24.230Z,2.72
2019-03-23T11:22:57.668Z,2.45
2019-03-23T11:25:28.805Z,2.50
2019-03-23T11:28:05.721Z,2.35
2019-03-23T11:30:37.647Z,6.50
2019-03-23T11:33:09.322Z,3.10
2019-03-23T11:35:40.390Z,3.35
2019-03-23T11:38:11.794Z,2.92
2019-03-23T11:40:52.188Z,3.45
2019-03-23T11:43:16.073Z,4.35
2019-03-23T11:45:47.320Z,4.95
2019-03-23T11:48:18.507Z,4.50
2019-03-23T11:50:49.610Z,4.80
2019-03-23T11:53:20.974Z,3.37
2019-03-23T11:55:52.003Z,2.55
2019-03-23T11:58:23.228Z,3.40
2019-03-23T12:00:54.510Z,3.50
2019-03-23T12:03:25.736Z,3.40
2019-03-23T12:05:57.478Z,2.30
2019-03-23T12:08:28.494Z,2.20
2019-03-23T12:11:03.119Z,2.20
2019-03-23T12:13:34.055Z,2.80
2019-03-23T12:16:07.214Z,2.87
2019-03-23T12:18:41.605Z,2.17
2019-03-23T12:21:12.930Z,2.40
2019-03-23T12:23:44.208Z,2.30
2019-03-23T12:26:23.847Z,2.87
2019-03-23T12:28:57.760Z,2.58
2019-03-23T12:31:28.876Z,2.70
2019-03-23T12:34:00.098Z,3.30
2019-03-23T12:36:32.208Z,3.20
2019-03-23T12:39:05.534Z,5.67
2019-03-23T12:41:38.040Z,4.12
2019-03-23T12:44:09.542Z,14.50
2019-03-23T12:46:48.283Z,3.27
2019-03-23T12:49:15.641Z,7.50
2019-03-23T12:51:46.716Z,4.28
2019-03-23T12:54:17.781Z,2.80
2019-03-23T12:59:10.772Z,3.70
2019-03-23T13:01:43.062Z,3.15
2019-03-23T13:04:16.215Z,3.80
2019-03-23T13:06:47.798Z,3.83
2019-03-23T13:09:19.910Z,3.72
2019-03-23T13:11:50.866Z,3.08
2019-03-23T13:14:27.273Z,3.77
2019-03-23T13:16:59.625Z,3.37
2019-03-23T13:19:35.617Z,2.80
2019-03-23T13:22:06.760Z,2.25
2019-03-23T13:24:37.944Z,2.90
2019-03-23T13:27:08.926Z,2.40
2019-03-23T13:29:42.842Z,2.98
2019-03-23T13:32:13.844Z,2.83
2019-03-23T13:34:47.116Z,3.12
2019-03-23T13:37:18.247Z,2.80
2019-03-23T13:39:49.802Z,3.00
2019-03-23T13:42:20.781Z,3.33
2019-03-23T13:44:53.420Z,3.50
2019-03-23T13:47:24.705Z,3.98
2019-03-23T13:49:55.761Z,3.30
2019-03-23T13:52:26.915Z,4.35
2019-03-23T13:54:57.960Z,3.83
2019-03-23T13:57:30.757Z,4.08
2019-03-23T14:00:02.131Z,4.45
2019-03-23T14:02:34.354Z,4.60
2019-03-23T14:05:12.234Z,6.60
2019-03-23T14:07:38.759Z,4.33
2019-03-23T14:10:10.497Z,7.37
2019-03-23T14:12:42.505Z,4.83
2019-03-23T14:15:13.776Z,4.83
2019-03-23T14:17:45.954Z,5.28
2019-03-23T14:20:17.236Z,5.58
2019-03-23T14:22:48.381Z,8.48
2019-03-23T14:25:21.933Z,7.03
2019-03-23T14:27:59.164Z,4.35
2019-03-23T14:30:32.234Z,3.80
2019-03-23T14:33:03.313Z,4.40
2019-03-23T14:35:34.487Z,4.20
2019-03-23T14:38:05.695Z,4.80
2019-03-23T14:40:36.850Z,4.08
2019-03-23T14:43:09.168Z,4.33
2019-03-23T14:45:41.064Z,4.70
2019-03-23T14:48:12.209Z,4.95
2019-03-23T14:50:43.539Z,4.60
2019-03-23T14:53:16.851Z,5.80
2019-03-23T14:55:47.955Z,6.03
2019-03-23T14:58:20.999Z,6.05
2019-03-23T15:00:52.178Z,4.90
2019-03-23T15:03:23.484Z,5.10
2019-03-23T15:05:55.750Z,5.15
2019-03-23T15:08:26.895Z,4.20
2019-03-23T15:11:01.050Z,4.45
2019-03-23T15:13:33.239Z,3.85
2019-03-23T15:16:08.664Z,4.30
2019-03-23T15:18:39.978Z,4.60
2019-03-23T15:21:11.262Z,4.28
2019-03-23T15:23:42.567Z,4.50
2019-03-23T15:26:13.813Z,5.80
2019-03-23T15:28:44.960Z,6.17
2019-03-23T15:31:22.626Z,6.35
2019-03-23T15:33:55.439Z,9.63
2019-03-23T15:36:27.204Z,15.72
2019-03-23T15:38:59.792Z,6.42
2019-03-23T15:41:33.206Z,6.95
2019-03-23T15:44:04.470Z,8.98
2019-03-23T15:46:35.504Z,5.85
2019-03-23T15:49:08.874Z,4.90
2019-03-23T15:51:40.326Z,5.08
2019-03-23T15:54:11.774Z,5.10
2019-03-23T15:56:43.036Z,5.55
2019-03-23T15:59:15.300Z,6.37
2019-03-23T16:01:48.689Z,6.72
2019-03-23T16:04:19.843Z,8.23
2019-03-23T16:06:51.591Z,7.15
2019-03-23T16:09:22.782Z,5.20
2019-03-23T16:11:53.854Z,5.47
2019-03-23T16:14:29.537Z,5.78
2019-03-23T16:17:02.016Z,5.85
2019-03-23T16:19:33.423Z,6.70
2019-03-23T16:22:05.224Z,6.85
2019-03-23T16:24:43.126Z,6.03
2019-03-23T16:27:14.571Z,6.95
2019-03-23T16:29:47.980Z,14.07
2019-03-23T16:32:23.380Z,7.50
2019-03-23T16:34:57.941Z,6.53
2019-03-23T16:37:29.690Z,5.62
2019-03-23T16:40:06.089Z,5.03
2019-03-23T16:42:45.324Z,5.20
2019-03-23T16:45:13.059Z,5.47
2019-03-23T16:47:44.728Z,5.12
2019-03-23T16:50:15.897Z,6.08
2019-03-23T16:52:47.042Z,5.50
2019-03-23T16:55:18.268Z,6.37
2019-03-23T16:57:49.340Z,5.92
2019-03-23T17:01:06.901Z,10.65
2019-03-23T17:03:40.044Z,9.95
2019-03-23T17:06:13.488Z,11.55
2019-03-23T17:08:47.331Z,8.70
2019-03-23T17:11:20.168Z,6.10
2019-03-23T17:13:53.449Z,5.93
2019-03-23T17:16:26.933Z,6.30
2019-03-23T17:18:59.201Z,6.28
2019-03-23T17:21:34.015Z,5.87
2019-03-23T17:24:07.060Z,5.65
2019-03-23T17:26:39.420Z,5.40
2019-03-23T17:29:12.826Z,5.95
2019-03-23T17:31:45.010Z,6.35
2019-03-23T17:34:18.480Z,7.05
2019-03-23T17:36:50.450Z,7.73
2019-03-23T17:39:23.766Z,9.33
2019-03-23T17:41:57.379Z,10.85
2019-03-23T17:44:32.418Z,9.68
2019-03-23T17:47:05.411Z,9.05
2019-03-23T17:49:39.571Z,9.18
2019-03-23T17:52:14.914Z,8.60
2019-03-23T17:54:50.173Z,7.22
2019-03-23T17:57:23.155Z,6.53
2019-03-23T18:00:04.059Z,7.15
2019-03-23T18:02:44.211Z,7.42
2019-03-23T18:05:18.025Z,6.20
2019-03-23T18:07:51.570Z,6.85
2019-03-23T18:10:24.855Z,8.00
2019-03-23T18:12:59.072Z,7.42
2019-03-23T18:15:30.996Z,8.23
2019-03-23T18:18:06.854Z,8.45
2019-03-23T18:20:42.515Z,9.08
2019-03-23T18:23:19.040Z,9.08
2019-03-23T18:25:54.109Z,8.33
2019-03-23T18:28:28.298Z,9.45
2019-03-23T18:31:00.490Z,8.65
2019-03-23T18:33:34.072Z,8.60
2019-03-23T18:36:07.008Z,9.95
2019-03-23T18:38:44.680Z,10.70
2019-03-23T18:41:22.111Z,9.55
2019-03-23T18:43:56.151Z,7.75
2019-03-23T18:46:28.617Z,7.33
2019-03-23T18:49:02.157Z,6.85
2019-03-23T18:51:34.896Z,6.62
2019-03-23T18:54:08.694Z,6.92
2019-03-23T18:56:43.148Z,7.92
2019-03-23T18:59:17.365Z,8.05
2019-03-23T19:01:49.377Z,6.60
2019-03-23T19:04:24.184Z,6.78
2019-03-23T19:06:57.631Z,6.45
2019-03-23T19:09:29.127Z,6.17
2019-03-23T19:12:00.419Z,5.58
2019-03-23T19:14:33.158Z,5.87
2019-03-23T19:17:04.562Z,5.90
2019-03-23T19:19:37.921Z,6.10
2019-03-23T19:22:10.350Z,6.37
2019-03-23T19:24:41.913Z,6.30
2019-03-23T19:27:13.722Z,6.20
2019-03-23T19:29:45.654Z,6.62
2019-03-23T19:32:17.406Z,6.85
2019-03-23T19:34:49.648Z,6.62
2019-03-23T19:37:22.549Z,6.92
2019-03-23T19:39:54.118Z,6.10
2019-03-23T19:42:26.810Z,6.90
2019-03-23T19:44:58.112Z,6.37
2019-03-23T19:47:29.841Z,7.22
2019-03-23T19:50:06.036Z,7.42
2019-03-23T19:52:37.332Z,7.28
2019-03-23T19:55:09.120Z,7.37
2019-03-23T19:57:40.386Z,7.97
2019-03-23T20:00:12.996Z,7.08
2019-03-23T20:02:45.401Z,7.05
2019-03-23T20:05:17.277Z,8.10
2019-03-23T20:07:54.804Z,12.47
2019-03-23T20:10:26.167Z,15.23
2019-03-23T20:12:57.828Z,11.80
2019-03-23T20:15:29.570Z,8.20
2019-03-23T20:18:02.973Z,8.03
2019-03-23T20:20:35.243Z,7.85
2019-03-23T20:23:07.914Z,7.97
2019-03-23T20:25:39.918Z,8.28
2019-03-23T20:28:11.534Z,12.82
2019-03-23T20:30:42.881Z,9.20
2019-03-23T20:33:19.242Z,9.73
2019-03-23T20:35:47.177Z,9.70
2019-03-23T20:38:19.585Z,9.65
2019-03-23T20:40:51.235Z,10.40
2019-03-23T20:43:24.129Z,9.05
2019-03-23T20:45:55.598Z,9.43
2019-03-23T20:48:26.780Z,9.18
2019-03-23T20:50:59.203Z,8.50
2019-03-23T20:53:30.377Z,10.78
2019-03-23T20:56:01.628Z,7.78
2019-03-23T20:58:33.231Z,6.92
2019-03-23T21:01:06.343Z,6.95
2019-03-23T21:06:12.513Z,7.28
2019-03-23T21:08:46.975Z,7.25
2019-03-23T21:11:24.752Z,7.53
2019-03-23T21:13:56.182Z,7.80
2019-03-23T21:16:27.306Z,8.00
2019-03-23T21:18:58.431Z,7.17
2019-03-23T21:21:29.577Z,8.18
2019-03-23T21:24:00.836Z,7.70
2019-03-23T21:26:32.036Z,7.62
2019-03-23T21:29:04.194Z,8.95
2019-03-23T21:31:36.618Z,8.00
2019-03-23T21:34:08.181Z,8.23
2019-03-23T21:36:39.316Z,8.10
2019-03-23T21:39:11.227Z,9.13
2019-03-23T21:41:43.854Z,11.80
2019-03-23T21:44:15.160Z,10.72
2019-03-23T21:46:46.680Z,10.00
2019-03-23T21:49:17.934Z,10.15
2019-03-23T21:51:50.110Z,9.60
2019-03-23T21:54:22.027Z,9.83
2019-03-23T21:56:56.523Z,9.50
2019-03-23T21:59:27.733Z,10.32
2019-03-23T22:01:58.960Z,9.93
2019-03-23T22:04:31.006Z,9.73
2019-03-23T22:07:02.479Z,10.03
2019-03-23T22:09:35.722Z,8.63
2019-03-23T22:12:06.671Z,9.38
2019-03-23T22:14:41.877Z,9.33
2019-03-23T22:17:10.646Z,9.68
2019-03-23T22:19:42.259Z,9.33
2019-03-23T22:22:13.254Z,9.50
2019-03-23T22:24:46.111Z,9.50
2019-03-23T22:27:19.089Z,10.05
2019-03-23T22:29:50.346Z,10.55
2019-03-23T22:32:21.596Z,10.48
2019-03-23T22:34:52.753Z,10.23
2019-03-23T22:37:24.074Z,10.03
2019-03-23T22:39:56.161Z,10.32
2019-03-23T22:42:27.411Z,10.53
2019-03-23T22:44:58.787Z,10.60
2019-03-23T22:47:29.921Z,10.60
2019-03-23T22:50:01.149Z,10.75
2019-03-23T22:52:32.362Z,11.28
2019-03-23T22:55:03.846Z,10.45
2019-03-23T22:57:35.156Z,10.38
2019-03-23T23:00:18.383Z,11.60
2019-03-23T23:02:51.203Z,11.70
2019-03-23T23:05:22.525Z,12.05
2019-03-23T23:07:53.970Z,12.88
2019-03-23T23:10:25.427Z,14.00
2019-03-23T23:12:56.565Z,12.80
2019-03-23T23:15:28.974Z,12.20
2019-03-23T23:18:00.595Z,12.20
2019-03-23T23:20:32.159Z,10.72
2019-03-23T23:23:03.498Z,12.20
2019-03-23T23:25:34.768Z,12.05
2019-03-23T23:28:06.200Z,11.45
2019-03-23T23:30:37.678Z,11.48
2019-03-23T23:33:08.784Z,11.68
2019-03-23T23:35:39.968Z,11.55
2019-03-23T23:38:11.112Z,11.35
2019-03-23T23:40:43.662Z,10.88
2019-03-23T23:43:14.828Z,13.60
2019-03-23T23:45:46.373Z,13.22
2019-03-23T23:48:17.824Z,14.90
2019-03-23T23:50:49.301Z,12.88
2019-03-23T23:53:20.625Z,12.10
2019-03-23T23:56:06.514Z,14.03
2019-03-23T23:58:37.761Z,14.75
